createdAt,value
2018-11-25T00:09:31.440Z,4.30
2018-11-25T00:12:08.594Z,4.30
2018-11-25T00:14:54.435Z,4.30
2018-11-25T00:20:04.712Z,4.30
2018-11-25T00:22:37.973Z,4.40
2018-11-25T00:27:59.861Z,4.40
2018-11-25T00:30:40.773Z,4.40
2018-11-25T00:33:24.160Z,4.40
2018-11-25T00:35:54.242Z,4.40
2018-11-25T00:38:25.660Z,4.40
2018-11-25T00:41:02.465Z,4.40
2018-11-25T00:46:17.231Z,4.50
2018-11-25T00:55:30.258Z,4.50
2018-11-25T00:58:06.713Z,4.50
2018-11-25T01:03:17.349Z,4.60
2018-11-25T01:05:47.581Z,4.60
2018-11-25T01:08:30.161Z,4.50
2018-11-25T01:11:03.931Z,4.50
2018-11-25T01:13:37.747Z,4.50
2018-11-25T01:16:13.732Z,4.50
2018-11-25T01:22:12.599Z,4.60
2018-11-25T01:27:25.624Z,4.60
2018-11-25T01:30:07.563Z,4.60
2018-11-25T01:35:23.578Z,4.60
2018-11-25T01:38:02.023Z,4.60
2018-11-25T01:40:36.072Z,4.60
2018-11-25T01:43:09.985Z,4.70
2018-11-25T01:45:39.602Z,4.70
2018-11-25T01:48:14.983Z,4.70
2018-11-25T01:50:49.781Z,4.60
2018-11-25T01:53:20.120Z,4.60
2018-11-25T01:55:59.562Z,4.60
2018-11-25T01:58:32.643Z,4.60
2018-11-25T02:01:11.152Z,4.60
2018-11-25T02:03:50.371Z,4.60
2018-11-25T02:06:28.855Z,4.60
2018-11-25T02:09:21.193Z,4.60
2018-11-25T02:11:55.748Z,4.50
2018-11-25T02:14:34.976Z,4.50
2018-11-25T02:19:58.199Z,4.50
2018-11-25T02:22:30.116Z,4.40
2018-11-25T02:27:46.356Z,4.40
2018-11-25T02:32:57.115Z,4.40
2018-11-25T02:35:34.581Z,4.40
2018-11-25T02:40:47.042Z,4.30
2018-11-25T02:43:18.535Z,4.30
2018-11-25T02:48:46.708Z,4.30
2018-11-25T02:51:18.647Z,4.30
2018-11-25T02:53:57.779Z,4.30
2018-11-25T02:56:27.936Z,4.30
2018-11-25T02:59:04.361Z,4.30
2018-11-25T03:01:39.950Z,4.30
2018-11-25T03:07:08.340Z,4.30
2018-11-25T03:12:24.063Z,4.20
2018-11-25T03:15:02.002Z,4.20
2018-11-25T03:17:39.230Z,4.20
2018-11-25T03:20:14.737Z,4.20
2018-11-25T03:22:46.298Z,4.20
2018-11-25T03:25:25.011Z,4.20
2018-11-25T03:27:58.807Z,4.20
2018-11-25T03:30:31.634Z,4.10
2018-11-25T03:33:02.641Z,4.10
2018-11-25T03:35:32.588Z,4.10
2018-11-25T03:38:04.768Z,4.10
2018-11-25T03:40:36.396Z,4.10
2018-11-25T03:45:47.351Z,4.00
2018-11-25T03:48:22.729Z,3.90
2018-11-25T03:50:54.671Z,3.90
2018-11-25T03:53:24.662Z,3.90
2018-11-25T03:56:01.408Z,3.90
2018-11-25T03:58:32.728Z,3.80
2018-11-25T04:01:09.756Z,3.80
2018-11-25T04:03:48.265Z,3.80
2018-11-25T04:06:25.716Z,3.80
2018-11-25T04:09:01.497Z,3.90
2018-11-25T04:14:21.899Z,3.80
2018-11-25T04:16:54.797Z,3.80
2018-11-25T04:19:27.190Z,3.80
2018-11-25T04:21:58.990Z,3.80
2018-11-25T04:24:34.195Z,3.80
2018-11-25T04:27:05.544Z,3.70
2018-11-25T04:30:00.298Z,3.70
2018-11-25T04:32:32.491Z,3.70
2018-11-25T04:35:10.719Z,3.70
2018-11-25T04:37:50.527Z,3.70
2018-11-25T04:40:19.747Z,3.70
2018-11-25T04:45:33.880Z,3.70
2018-11-25T04:48:09.635Z,3.70
2018-11-25T04:50:41.029Z,3.70
2018-11-25T04:55:54.799Z,3.70
2018-11-25T04:58:40.040Z,3.70
2018-11-25T05:01:09.821Z,3.70
2018-11-25T05:03:43.582Z,3.70
2018-11-25T05:06:13.184Z,3.60
2018-11-25T05:12:04.986Z,3.60
2018-11-25T05:14:34.177Z,3.60
2018-11-25T05:17:05.693Z,3.60
2018-11-25T05:19:40.310Z,3.60
2018-11-25T05:22:11.007Z,3.60
2018-11-25T05:24:40.523Z,3.60
2018-11-25T05:27:10.820Z,3.60
2018-11-25T05:29:40.421Z,3.60
2018-11-25T05:32:10.734Z,3.60
2018-11-25T05:34:42.310Z,3.60
2018-11-25T05:39:51.841Z,3.60
2018-11-25T05:42:22.843Z,3.60
2018-11-25T05:44:53.259Z,3.60
2018-11-25T05:47:25.680Z,3.60
2018-11-25T05:53:23.643Z,3.70
2018-11-25T05:55:59.653Z,3.60
2018-11-25T05:58:32.521Z,3.60
2018-11-25T06:01:06.127Z,3.50
2018-11-25T06:03:40.323Z,3.60
2018-11-25T06:06:13.620Z,3.60
2018-11-25T06:08:55.102Z,3.50
2018-11-25T06:11:35.841Z,3.60
2018-11-25T06:14:12.514Z,3.50
2018-11-25T06:16:47.047Z,3.60
2018-11-25T06:19:19.564Z,3.60
2018-11-25T06:21:52.800Z,3.60
2018-11-25T06:24:28.133Z,3.60
2018-11-25T06:27:04.771Z,3.60
2018-11-25T06:29:54.331Z,3.60
2018-11-25T06:35:08.518Z,3.70
2018-11-25T06:37:40.316Z,3.70
2018-11-25T06:40:21.657Z,3.70
2018-11-25T06:42:54.139Z,3.70
2018-11-25T06:45:33.185Z,3.70
2018-11-25T06:50:51.756Z,3.70
2018-11-25T06:58:59.673Z,3.70
2018-11-25T07:01:32.685Z,3.70
2018-11-25T07:04:04.398Z,3.60
2018-11-25T07:06:35.860Z,3.60
2018-11-25T07:09:10.005Z,3.60
2018-11-25T07:11:47.855Z,3.60
2018-11-25T07:14:27.126Z,3.60
2018-11-25T07:16:58.226Z,3.60
2018-11-25T07:19:35.156Z,3.70
2018-11-25T07:22:07.383Z,3.70
2018-11-25T07:27:19.903Z,3.70
2018-11-25T07:30:07.732Z,3.70
2018-11-25T07:32:39.949Z,3.70
2018-11-25T07:35:10.850Z,3.70
2018-11-25T07:40:19.103Z,3.70
2018-11-25T07:42:51.135Z,3.70
2018-11-25T07:45:30.567Z,3.70
2018-11-25T07:48:06.058Z,3.70
2018-11-25T07:50:42.214Z,3.70
2018-11-25T07:55:59.304Z,3.70
2018-11-25T07:59:07.092Z,3.70
2018-11-25T08:01:42.491Z,3.70
2018-11-25T08:09:42.671Z,3.70
2018-11-25T08:15:02.968Z,3.70
2018-11-25T08:20:17.714Z,3.80
2018-11-25T08:25:35.342Z,3.80
2018-11-25T08:36:13.298Z,3.80
2018-11-25T08:38:59.357Z,3.90
2018-11-25T08:41:31.691Z,3.90
2018-11-25T08:44:03.689Z,3.90
2018-11-25T08:46:35.691Z,3.90
2018-11-25T08:49:36.020Z,3.90
2018-11-25T08:52:10.778Z,3.90
2018-11-25T08:54:43.403Z,3.90
2018-11-25T08:57:16.851Z,3.90
2018-11-25T09:00:21.950Z,4.00
2018-11-25T09:02:54.926Z,3.90
2018-11-25T09:05:30.289Z,4.00
2018-11-25T09:10:51.393Z,4.00
2018-11-25T09:18:56.240Z,4.10
2018-11-25T09:21:31.077Z,4.10
2018-11-25T09:26:43.423Z,4.10
2018-11-25T09:40:29.079Z,4.20
2018-11-25T09:48:43.883Z,4.30
2018-11-25T09:51:25.065Z,4.40
2018-11-25T09:53:55.554Z,4.40
2018-11-25T09:56:29.114Z,4.50
2018-11-25T09:59:22.435Z,4.60
2018-11-25T10:07:19.577Z,4.70
2018-11-25T10:09:59.569Z,4.70
2018-11-25T10:12:43.874Z,4.70
2018-11-25T10:20:44.242Z,4.60
2018-11-25T10:23:21.652Z,4.70
2018-11-25T10:25:58.905Z,4.70
2018-11-25T10:31:24.246Z,4.70
2018-11-25T10:34:03.237Z,4.70
2018-11-25T10:36:39.587Z,4.70
2018-11-25T10:39:14.549Z,4.70
2018-11-25T10:44:33.957Z,4.80
2018-11-25T10:50:07.717Z,4.80
2018-11-25T11:05:41.553Z,4.90
2018-11-25T12:01:55.783Z,5.40
2018-11-25T12:07:06.446Z,5.40
2018-11-25T12:15:16.493Z,5.40
2018-11-25T12:17:49.668Z,5.50
2018-11-25T12:23:13.111Z,5.60
2018-11-25T12:25:44.032Z,5.60
2018-11-25T12:30:48.813Z,5.70
2018-11-25T12:33:21.800Z,5.70
2018-11-25T12:35:53.734Z,5.70
2018-11-25T12:54:38.913Z,5.80
2018-11-25T12:57:21.452Z,5.80
2018-11-25T13:00:24.645Z,5.80
2018-11-25T13:02:56.045Z,5.90
2018-11-25T13:05:34.862Z,5.90
2018-11-25T13:11:34.158Z,5.80
2018-11-25T13:16:57.585Z,5.80
2018-11-25T13:20:09.714Z,5.80
2018-11-25T13:25:46.027Z,5.70
2018-11-25T13:28:16.029Z,5.70
2018-11-25T13:30:52.816Z,5.60
2018-11-25T13:33:24.524Z,5.60
2018-11-25T13:35:57.020Z,5.60
2018-11-25T13:38:32.803Z,5.60
2018-11-25T13:41:04.432Z,5.50
2018-11-25T13:43:41.399Z,5.50
2018-11-25T13:46:10.855Z,5.50
2018-11-25T13:48:44.979Z,5.60
2018-11-25T13:51:15.777Z,5.60
2018-11-25T13:53:49.573Z,5.50
2018-11-25T13:56:22.135Z,5.50
2018-11-25T13:58:52.595Z,5.50
2018-11-25T14:01:26.888Z,5.50
2018-11-25T14:04:00.827Z,5.50
2018-11-25T14:06:32.184Z,5.50
2018-11-25T14:09:17.259Z,5.40
2018-11-25T14:11:49.000Z,5.50
2018-11-25T14:14:28.631Z,5.40
2018-11-25T14:16:57.510Z,5.40
2018-11-25T14:19:29.823Z,5.40
2018-11-25T14:22:06.335Z,5.30
2018-11-25T14:27:19.125Z,5.30
2018-11-25T14:29:51.649Z,5.20
2018-11-25T14:37:56.722Z,5.10
2018-11-25T14:40:32.798Z,5.00
2018-11-25T14:43:03.567Z,4.90
2018-11-25T14:45:42.397Z,4.90
2018-11-25T14:48:16.764Z,4.80
2018-11-25T14:50:52.528Z,4.80
2018-11-25T14:53:34.699Z,4.80
2018-11-25T14:56:05.885Z,4.70
2018-11-25T14:58:40.112Z,4.70
2018-11-25T15:01:10.857Z,4.60
2018-11-25T15:03:45.220Z,4.50
2018-11-25T15:06:18.679Z,4.50
2018-11-25T15:11:33.895Z,4.30
2018-11-25T16:26:35.698Z,2.90
2018-11-25T16:29:24.383Z,2.90
2018-11-25T16:34:49.478Z,2.80
2018-11-25T16:37:27.648Z,2.80
2018-11-25T16:40:31.017Z,2.70
2018-11-25T16:43:12.474Z,2.70
2018-11-25T16:54:53.887Z,2.50
2018-11-25T16:58:02.529Z,2.50
2018-11-25T17:36:44.446Z,2.10
2018-11-25T17:40:02.023Z,2.00
2018-11-25T17:43:00.082Z,2.00
2018-11-25T17:45:57.046Z,2.00
2018-11-25T17:48:43.549Z,2.00
2018-11-25T17:51:23.749Z,1.90
2018-11-25T17:54:01.873Z,1.90
2018-11-25T18:02:26.262Z,1.90
2018-11-25T19:07:17.281Z,1.50
2018-11-25T19:24:11.486Z,1.40
2018-11-25T19:26:56.117Z,1.40
2018-11-25T19:29:34.381Z,1.40
2018-11-25T19:32:12.991Z,1.40
2018-11-25T19:40:45.390Z,1.40
2018-11-25T19:48:59.837Z,1.40
2018-11-25T19:54:32.173Z,1.40
2018-11-25T19:57:18.278Z,1.30
2018-11-25T20:03:01.102Z,1.30
2018-11-25T20:11:19.206Z,1.30
2018-11-25T20:16:30.332Z,1.20
2018-11-25T20:19:16.892Z,1.20
2018-11-25T20:21:53.055Z,1.20
2018-11-25T20:24:32.310Z,1.20
2018-11-25T20:27:19.148Z,1.20
2018-11-25T20:32:42.058Z,1.20
2018-11-25T20:35:26.896Z,1.20
2018-11-25T20:40:16.314Z,1.20
2018-11-25T20:48:26.962Z,1.10
2018-11-25T20:51:15.894Z,1.00
2018-11-25T20:56:45.166Z,1.00
2018-11-25T21:07:30.775Z,0.90
2018-11-25T21:13:27.438Z,0.90
2018-11-25T21:16:06.525Z,0.90
2018-11-25T21:18:50.076Z,1.00
2018-11-25T21:21:25.209Z,0.90
2018-11-25T21:24:07.390Z,0.90
2018-11-25T21:26:47.393Z,0.90
2018-11-25T21:29:40.760Z,0.90
2018-11-25T21:32:18.532Z,0.90
2018-11-25T21:37:39.142Z,0.90
2018-11-25T21:46:25.625Z,0.80
2018-11-25T21:49:18.179Z,0.70
2018-11-25T21:51:56.544Z,0.70
2018-11-25T21:54:27.727Z,0.70
2018-11-25T21:57:05.238Z,0.60
2018-11-25T21:59:41.728Z,0.60
2018-11-25T22:05:02.030Z,0.60
2018-11-25T22:07:35.613Z,0.60
2018-11-25T22:10:11.384Z,0.60
2018-11-25T22:21:14.530Z,0.50
2018-11-25T22:29:33.876Z,0.50
2018-11-25T22:32:21.295Z,0.40
2018-11-25T22:34:52.343Z,0.40
2018-11-25T22:37:22.371Z,0.40
2018-11-25T22:40:18.528Z,0.40
2018-11-25T22:45:29.240Z,0.40
2018-11-25T22:48:06.653Z,0.30
2018-11-25T22:50:41.432Z,0.30
2018-11-25T22:53:27.051Z,0.30
2018-11-25T22:56:09.502Z,0.30
2018-11-25T22:58:53.977Z,0.30
2018-11-25T23:01:24.181Z,0.30
2018-11-25T23:07:10.577Z,0.20
2018-11-25T23:13:15.794Z,0.20
2018-11-25T23:15:55.460Z,0.20
2018-11-25T23:21:58.565Z,0.20
2018-11-25T23:30:19.636Z,0.20
2018-11-25T23:32:54.136Z,0.10
2018-11-25T23:35:31.298Z,0.10
2018-11-25T23:38:09.343Z,0.10
2018-11-25T23:41:08.855Z,0.10
2018-11-25T23:43:40.573Z,0.10
2018-11-25T23:46:12.922Z,0.10
2018-11-25T23:48:46.619Z,0.10
2018-11-25T23:51:22.983Z,0.10
2018-11-25T23:54:02.621Z,0.10
2018-11-25T23:56:36.739Z,0.10
